sensor_id;sensor_type;location;lat;lon;timestamp;P1;durP1;ratioP1;P2;durP2;ratioP2
21107;SDS011;10712;52.944;9.098;2024-01-10T00:01:59;14.48;;;8.40;;
21107;SDS011;10712;52.944;9.098;2024-01-10T00:04:24;13.48;;;8.43;;
21107;SDS011;10712;52.944;9.098;2024-01-10T00:06:50;13.77;;;8.38;;
21107;SDS011;10712;52.944;9.098;2024-01-10T00:09:16;15.18;;;8.70;;
21107;SDS011;10712;52.944;9.098;2024-01-10T00:11:42;12.07;;;9.20;;
21107;SDS011;10712;52.944;9.098;2024-01-10T00:14:08;12.73;;;8.63;;
21107;SDS011;10712;52.944;9.098;2024-01-10T00:16:34;12.80;;;9.15;;
21107;SDS011;10712;52.944;9.098;2024-01-10T00:19:00;14.20;;;9.07;;
21107;SDS011;10712;52.944;9.098;2024-01-10T00:21:26;13.05;;;8.95;;
21107;SDS011;10712;52.944;9.098;2024-01-10T00:23:52;15.98;;;9.63;;
21107;SDS011;10712;52.944;9.098;2024-01-10T00:26:18;12.05;;;8.48;;
21107;SDS011;10712;52.944;9.098;2024-01-10T00:28:43;14.15;;;8.70;;
21107;SDS011;10712;52.944;9.098;2024-01-10T00:31:11;13.07;;;9.27;;
21107;SDS011;10712;52.944;9.098;2024-01-10T00:33:38;11.13;;;8.95;;
21107;SDS011;10712;52.944;9.098;2024-01-10T00:36:05;13.05;;;9.05;;
21107;SDS011;10712;52.944;9.098;2024-01-10T00:38:31;15.23;;;9.55;;
21107;SDS011;10712;52.944;9.098;2024-01-10T00:40:58;15.68;;;9.75;;
21107;SDS011;10712;52.944;9.098;2024-01-10T00:43:24;14.32;;;9.80;;
21107;SDS011;10712;52.944;9.098;2024-01-10T00:45:50;15.95;;;9.82;;
21107;SDS011;10712;52.944;9.098;2024-01-10T00:48:16;14.07;;;9.82;;
21107;SDS011;10712;52.944;9.098;2024-01-10T00:50:45;12.98;;;9.73;;
21107;SDS011;10712;52.944;9.098;2024-01-10T00:53:11;14.23;;;9.77;;
21107;SDS011;10712;52.944;9.098;2024-01-10T00:55:37;12.18;;;9.10;;
21107;SDS011;10712;52.944;9.098;2024-01-10T00:58:03;14.05;;;9.88;;
21107;SDS011;10712;52.944;9.098;2024-01-10T01:00:29;16.70;;;10.13;;
21107;SDS011;10712;52.944;9.098;2024-01-10T01:02:54;14.38;;;9.80;;
21107;SDS011;10712;52.944;9.098;2024-01-10T01:05:20;12.35;;;8.88;;
21107;SDS011;10712;52.944;9.098;2024-01-10T01:07:46;12.45;;;9.75;;
21107;SDS011;10712;52.944;9.098;2024-01-10T01:10:12;15.43;;;10.38;;
21107;SDS011;10712;52.944;9.098;2024-01-10T01:12:38;16.83;;;9.67;;
21107;SDS011;10712;52.944;9.098;2024-01-10T01:15:04;13.80;;;9.20;;
21107;SDS011;10712;52.944;9.098;2024-01-10T01:17:31;11.80;;;8.40;;
21107;SDS011;10712;52.944;9.098;2024-01-10T01:19:57;12.65;;;9.60;;
21107;SDS011;10712;52.944;9.098;2024-01-10T01:22:23;15.60;;;9.35;;
21107;SDS011;10712;52.944;9.098;2024-01-10T01:24:49;14.55;;;9.68;;
21107;SDS011;10712;52.944;9.098;2024-01-10T01:27:14;12.82;;;8.98;;
21107;SDS011;10712;52.944;9.098;2024-01-10T01:29:40;16.23;;;9.68;;
21107;SDS011;10712;52.944;9.098;2024-01-10T01:32:06;19.70;;;9.32;;
21107;SDS011;10712;52.944;9.098;2024-01-10T01:34:32;14.43;;;9.48;;
21107;SDS011;10712;52.944;9.098;2024-01-10T01:36:57;14.77;;;9.60;;
21107;SDS011;10712;52.944;9.098;2024-01-10T01:39:23;13.73;;;8.80;;
21107;SDS011;10712;52.944;9.098;2024-01-10T01:41:49;17.73;;;9.65;;
21107;SDS011;10712;52.944;9.098;2024-01-10T01:44:15;12.73;;;9.52;;
21107;SDS011;10712;52.944;9.098;2024-01-10T01:46:41;16.20;;;10.20;;
21107;SDS011;10712;52.944;9.098;2024-01-10T01:49:07;14.30;;;9.23;;
21107;SDS011;10712;52.944;9.098;2024-01-10T01:51:33;16.15;;;9.25;;
21107;SDS011;10712;52.944;9.098;2024-01-10T01:54:02;14.82;;;9.68;;
21107;SDS011;10712;52.944;9.098;2024-01-10T01:56:42;13.98;;;9.23;;
21107;SDS011;10712;52.944;9.098;2024-01-10T01:59:09;12.90;;;9.00;;
21107;SDS011;10712;52.944;9.098;2024-01-10T02:01:36;11.85;;;8.52;;
21107;SDS011;10712;52.944;9.098;2024-01-10T02:04:02;13.43;;;9.45;;
21107;SDS011;10712;52.944;9.098;2024-01-10T02:06:28;14.95;;;11.20;;
21107;SDS011;10712;52.944;9.098;2024-01-10T02:08:55;13.60;;;9.80;;
21107;SDS011;10712;52.944;9.098;2024-01-10T02:11:22;15.95;;;9.68;;
21107;SDS011;10712;52.944;9.098;2024-01-10T02:13:51;14.18;;;9.52;;
21107;SDS011;10712;52.944;9.098;2024-01-10T02:16:21;14.48;;;9.02;;
21107;SDS011;10712;52.944;9.098;2024-01-10T02:18:48;12.50;;;8.55;;
21107;SDS011;10712;52.944;9.098;2024-01-10T02:21:15;12.23;;;9.27;;
21107;SDS011;10712;52.944;9.098;2024-01-10T02:23:41;9.90;;;7.30;;
21107;SDS011;10712;52.944;9.098;2024-01-10T02:26:07;13.30;;;7.68;;
21107;SDS011;10712;52.944;9.098;2024-01-10T02:28:33;11.35;;;8.10;;
21107;SDS011;10712;52.944;9.098;2024-01-10T02:30:59;11.40;;;8.00;;
21107;SDS011;10712;52.944;9.098;2024-01-10T02:33:26;13.95;;;8.32;;
21107;SDS011;10712;52.944;9.098;2024-01-10T02:35:53;13.85;;;8.25;;
21107;SDS011;10712;52.944;9.098;2024-01-10T02:38:18;12.32;;;7.60;;
21107;SDS011;10712;52.944;9.098;2024-01-10T02:40:46;10.38;;;7.85;;
21107;SDS011;10712;52.944;9.098;2024-01-10T02:43:12;11.52;;;7.60;;
21107;SDS011;10712;52.944;9.098;2024-01-10T02:45:37;12.17;;;7.43;;
21107;SDS011;10712;52.944;9.098;2024-01-10T02:48:03;10.32;;;7.20;;
21107;SDS011;10712;52.944;9.098;2024-01-10T02:50:29;9.00;;;7.00;;
21107;SDS011;10712;52.944;9.098;2024-01-10T02:52:55;10.32;;;7.85;;
21107;SDS011;10712;52.944;9.098;2024-01-10T02:55:21;10.65;;;7.22;;
21107;SDS011;10712;52.944;9.098;2024-01-10T02:57:47;11.20;;;7.00;;
21107;SDS011;10712;52.944;9.098;2024-01-10T03:00:12;9.05;;;6.63;;
21107;SDS011;10712;52.944;9.098;2024-01-10T03:02:38;8.88;;;6.10;;
21107;SDS011;10712;52.944;9.098;2024-01-10T03:05:04;10.82;;;6.50;;
21107;SDS011;10712;52.944;9.098;2024-01-10T03:07:30;11.85;;;7.70;;
21107;SDS011;10712;52.944;9.098;2024-01-10T03:09:56;11.82;;;8.20;;
21107;SDS011;10712;52.944;9.098;2024-01-10T03:12:22;14.95;;;7.95;;
21107;SDS011;10712;52.944;9.098;2024-01-10T03:14:47;10.27;;;7.32;;
21107;SDS011;10712;52.944;9.098;2024-01-10T03:17:13;8.57;;;6.47;;
21107;SDS011;10712;52.944;9.098;2024-01-10T03:19:39;8.73;;;6.75;;
21107;SDS011;10712;52.944;9.098;2024-01-10T03:22:09;12.25;;;7.07;;
21107;SDS011;10712;52.944;9.098;2024-01-10T03:24:36;11.25;;;7.13;;
21107;SDS011;10712;52.944;9.098;2024-01-10T03:27:03;11.02;;;7.57;;
21107;SDS011;10712;52.944;9.098;2024-01-10T03:29:29;11.32;;;8.05;;
21107;SDS011;10712;52.944;9.098;2024-01-10T03:31:55;13.23;;;7.88;;
21107;SDS011;10712;52.944;9.098;2024-01-10T03:34:21;11.57;;;8.05;;
21107;SDS011;10712;52.944;9.098;2024-01-10T03:36:47;14.13;;;7.63;;
21107;SDS011;10712;52.944;9.098;2024-01-10T03:39:13;8.77;;;6.22;;
21107;SDS011;10712;52.944;9.098;2024-01-10T03:41:38;11.75;;;7.72;;
21107;SDS011;10712;52.944;9.098;2024-01-10T03:44:04;11.48;;;7.43;;
21107;SDS011;10712;52.944;9.098;2024-01-10T03:46:30;12.73;;;7.32;;
21107;SDS011;10712;52.944;9.098;2024-01-10T03:48:56;11.60;;;7.85;;
21107;SDS011;10712;52.944;9.098;2024-01-10T03:51:22;10.23;;;7.20;;
21107;SDS011;10712;52.944;9.098;2024-01-10T03:53:48;10.68;;;7.00;;
21107;SDS011;10712;52.944;9.098;2024-01-10T03:56:14;9.60;;;7.28;;
21107;SDS011;10712;52.944;9.098;2024-01-10T03:58:40;12.00;;;7.22;;
21107;SDS011;10712;52.944;9.098;2024-01-10T04:01:06;11.40;;;7.95;;
21107;SDS011;10712;52.944;9.098;2024-01-10T04:03:34;9.40;;;6.88;;
21107;SDS011;10712;52.944;9.098;2024-01-10T04:06:00;10.48;;;7.10;;
21107;SDS011;10712;52.944;9.098;2024-01-10T04:08:27;13.73;;;8.07;;
21107;SDS011;10712;52.944;9.098;2024-01-10T04:10:53;12.38;;;7.65;;
21107;SDS011;10712;52.944;9.098;2024-01-10T04:13:19;9.85;;;7.30;;
21107;SDS011;10712;52.944;9.098;2024-01-10T04:15:45;7.97;;;7.10;;
21107;SDS011;10712;52.944;9.098;2024-01-10T04:18:11;11.50;;;7.70;;
21107;SDS011;10712;52.944;9.098;2024-01-10T04:20:37;12.82;;;8.32;;
21107;SDS011;10712;52.944;9.098;2024-01-10T04:23:03;11.40;;;8.25;;
21107;SDS011;10712;52.944;9.098;2024-01-10T04:25:29;16.00;;;8.25;;
21107;SDS011;10712;52.944;9.098;2024-01-10T04:27:55;15.30;;;8.40;;
21107;SDS011;10712;52.944;9.098;2024-01-10T04:30:22;11.90;;;8.48;;
21107;SDS011;10712;52.944;9.098;2024-01-10T04:32:48;13.00;;;8.40;;
21107;SDS011;10712;52.944;9.098;2024-01-10T04:35:14;14.27;;;8.25;;
21107;SDS011;10712;52.944;9.098;2024-01-10T04:37:40;14.75;;;9.07;;
21107;SDS011;10712;52.944;9.098;2024-01-10T04:40:06;11.43;;;8.10;;
21107;SDS011;10712;52.944;9.098;2024-01-10T04:42:32;13.07;;;8.50;;
21107;SDS011;10712;52.944;9.098;2024-01-10T04:44:58;14.30;;;9.32;;
21107;SDS011;10712;52.944;9.098;2024-01-10T04:47:24;14.13;;;9.10;;
21107;SDS011;10712;52.944;9.098;2024-01-10T04:49:50;14.45;;;9.98;;
21107;SDS011;10712;52.944;9.098;2024-01-10T04:52:15;13.77;;;10.55;;
21107;SDS011;10712;52.944;9.098;2024-01-10T04:54:41;14.73;;;9.65;;
21107;SDS011;10712;52.944;9.098;2024-01-10T04:57:07;15.52;;;9.57;;
21107;SDS011;10712;52.944;9.098;2024-01-10T04:59:33;13.35;;;9.60;;
21107;SDS011;10712;52.944;9.098;2024-01-10T05:01:59;14.40;;;10.52;;
21107;SDS011;10712;52.944;9.098;2024-01-10T05:04:25;20.27;;;11.60;;
21107;SDS011;10712;52.944;9.098;2024-01-10T05:06:50;15.90;;;10.63;;
21107;SDS011;10712;52.944;9.098;2024-01-10T05:09:16;15.80;;;10.55;;
21107;SDS011;10712;52.944;9.098;2024-01-10T05:11:42;18.90;;;11.30;;
21107;SDS011;10712;52.944;9.098;2024-01-10T05:14:12;17.02;;;11.65;;
21107;SDS011;10712;52.944;9.098;2024-01-10T05:16:38;16.38;;;10.82;;
21107;SDS011;10712;52.944;9.098;2024-01-10T05:19:04;19.77;;;11.73;;
21107;SDS011;10712;52.944;9.098;2024-01-10T05:21:30;17.40;;;11.63;;
21107;SDS011;10712;52.944;9.098;2024-01-10T05:23:57;18.13;;;12.13;;
21107;SDS011;10712;52.944;9.098;2024-01-10T05:26:23;19.60;;;12.40;;
21107;SDS011;10712;52.944;9.098;2024-01-10T05:28:49;17.45;;;12.85;;
21107;SDS011;10712;52.944;9.098;2024-01-10T05:31:15;17.08;;;12.52;;
21107;SDS011;10712;52.944;9.098;2024-01-10T05:33:41;19.30;;;12.38;;
21107;SDS011;10712;52.944;9.098;2024-01-10T05:36:08;20.60;;;13.15;;
21107;SDS011;10712;52.944;9.098;2024-01-10T05:38:38;19.52;;;12.55;;
21107;SDS011;10712;52.944;9.098;2024-01-10T05:41:05;18.23;;;12.38;;
21107;SDS011;10712;52.944;9.098;2024-01-10T05:43:30;16.23;;;11.77;;
21107;SDS011;10712;52.944;9.098;2024-01-10T05:45:57;17.13;;;11.55;;
21107;SDS011;10712;52.944;9.098;2024-01-10T05:48:24;20.95;;;12.05;;
21107;SDS011;10712;52.944;9.098;2024-01-10T05:50:49;15.70;;;10.80;;
21107;SDS011;10712;52.944;9.098;2024-01-10T05:53:16;18.20;;;12.85;;
21107;SDS011;10712;52.944;9.098;2024-01-10T05:55:43;17.30;;;11.82;;
21107;SDS011;10712;52.944;9.098;2024-01-10T05:58:10;20.13;;;12.18;;
21107;SDS011;10712;52.944;9.098;2024-01-10T06:00:36;17.08;;;11.77;;
21107;SDS011;10712;52.944;9.098;2024-01-10T06:03:02;16.38;;;12.10;;
21107;SDS011;10712;52.944;9.098;2024-01-10T06:05:29;15.77;;;11.40;;
21107;SDS011;10712;52.944;9.098;2024-01-10T06:07:56;16.10;;;11.77;;
21107;SDS011;10712;52.944;9.098;2024-01-10T06:10:22;15.63;;;10.43;;
21107;SDS011;10712;52.944;9.098;2024-01-10T06:12:48;16.30;;;10.20;;
21107;SDS011;10712;52.944;9.098;2024-01-10T06:15:14;14.73;;;10.65;;
21107;SDS011;10712;52.944;9.098;2024-01-10T06:17:40;16.95;;;11.30;;
21107;SDS011;10712;52.944;9.098;2024-01-10T06:20:06;16.30;;;10.88;;
21107;SDS011;10712;52.944;9.098;2024-01-10T06:22:34;16.85;;;10.90;;
21107;SDS011;10712;52.944;9.098;2024-01-10T06:25:00;15.20;;;10.60;;
21107;SDS011;10712;52.944;9.098;2024-01-10T06:27:25;14.85;;;10.15;;
21107;SDS011;10712;52.944;9.098;2024-01-10T06:29:51;17.65;;;10.95;;
21107;SDS011;10712;52.944;9.098;2024-01-10T06:32:17;16.00;;;10.65;;
21107;SDS011;10712;52.944;9.098;2024-01-10T06:34:43;18.83;;;10.88;;
21107;SDS011;10712;52.944;9.098;2024-01-10T06:37:08;13.23;;;9.90;;
21107;SDS011;10712;52.944;9.098;2024-01-10T06:39:35;15.75;;;10.48;;
21107;SDS011;10712;52.944;9.098;2024-01-10T06:42:01;17.23;;;9.70;;
21107;SDS011;10712;52.944;9.098;2024-01-10T06:44:31;13.02;;;8.57;;
21107;SDS011;10712;52.944;9.098;2024-01-10T06:46:57;14.38;;;10.07;;
21107;SDS011;10712;52.944;9.098;2024-01-10T06:49:23;12.30;;;9.48;;
21107;SDS011;10712;52.944;9.098;2024-01-10T06:51:48;12.52;;;9.30;;
21107;SDS011;10712;52.944;9.098;2024-01-10T06:54:15;13.02;;;9.43;;
21107;SDS011;10712;52.944;9.098;2024-01-10T06:56:40;15.68;;;9.48;;
21107;SDS011;10712;52.944;9.098;2024-01-10T06:59:06;11.32;;;8.57;;
21107;SDS011;10712;52.944;9.098;2024-01-10T07:01:32;15.57;;;10.23;;
21107;SDS011;10712;52.944;9.098;2024-01-10T07:03:58;16.23;;;9.77;;
21107;SDS011;10712;52.944;9.098;2024-01-10T07:06:24;14.05;;;9.45;;
21107;SDS011;10712;52.944;9.098;2024-01-10T07:08:50;13.30;;;9.20;;
21107;SDS011;10712;52.944;9.098;2024-01-10T07:11:16;12.88;;;9.02;;
21107;SDS011;10712;52.944;9.098;2024-01-10T07:13:44;12.40;;;8.25;;
21107;SDS011;10712;52.944;9.098;2024-01-10T07:16:10;11.80;;;8.98;;
21107;SDS011;10712;52.944;9.098;2024-01-10T07:18:40;10.93;;;7.50;;
21107;SDS011;10712;52.944;9.098;2024-01-10T07:21:06;15.38;;;8.85;;
21107;SDS011;10712;52.944;9.098;2024-01-10T07:23:34;25.38;;;16.13;;
21107;SDS011;10712;52.944;9.098;2024-01-10T07:26:00;14.93;;;10.85;;
21107;SDS011;10712;52.944;9.098;2024-01-10T07:28:26;13.35;;;8.45;;
21107;SDS011;10712;52.944;9.098;2024-01-10T07:30:52;12.27;;;9.10;;
21107;SDS011;10712;52.944;9.098;2024-01-10T07:33:18;10.38;;;7.88;;
21107;SDS011;10712;52.944;9.098;2024-01-10T07:35:44;11.68;;;8.20;;
21107;SDS011;10712;52.944;9.098;2024-01-10T07:38:09;13.95;;;8.55;;
21107;SDS011;10712;52.944;9.098;2024-01-10T07:40:35;14.32;;;8.93;;
21107;SDS011;10712;52.944;9.098;2024-01-10T07:43:01;12.57;;;8.25;;
21107;SDS011;10712;52.944;9.098;2024-01-10T07:45:27;13.40;;;7.95;;
21107;SDS011;10712;52.944;9.098;2024-01-10T07:47:54;12.85;;;8.68;;
21107;SDS011;10712;52.944;9.098;2024-01-10T07:50:20;15.15;;;7.80;;
21107;SDS011;10712;52.944;9.098;2024-01-10T07:52:46;14.38;;;8.65;;
21107;SDS011;10712;52.944;9.098;2024-01-10T07:55:12;13.50;;;8.80;;
21107;SDS011;10712;52.944;9.098;2024-01-10T07:57:38;16.27;;;10.27;;
21107;SDS011;10712;52.944;9.098;2024-01-10T08:00:04;30.70;;;18.95;;
21107;SDS011;10712;52.944;9.098;2024-01-10T08:02:35;14.77;;;10.82;;
21107;SDS011;10712;52.944;9.098;2024-01-10T08:05:05;14.70;;;9.02;;
21107;SDS011;10712;52.944;9.098;2024-01-10T08:07:35;14.25;;;8.48;;
21107;SDS011;10712;52.944;9.098;2024-01-10T08:10:08;14.63;;;10.20;;
21107;SDS011;10712;52.944;9.098;2024-01-10T08:12:38;13.55;;;9.40;;
21107;SDS011;10712;52.944;9.098;2024-01-10T08:15:06;13.02;;;9.48;;
21107;SDS011;10712;52.944;9.098;2024-01-10T08:17:32;13.98;;;8.65;;
21107;SDS011;10712;52.944;9.098;2024-01-10T08:19:59;12.05;;;9.50;;
21107;SDS011;10712;52.944;9.098;2024-01-10T08:22:25;16.75;;;9.27;;
21107;SDS011;10712;52.944;9.098;2024-01-10T08:24:51;14.13;;;9.02;;
21107;SDS011;10712;52.944;9.098;2024-01-10T08:27:17;15.85;;;9.95;;
21107;SDS011;10712;52.944;9.098;2024-01-10T08:29:43;13.30;;;9.07;;
21107;SDS011;10712;52.944;9.098;2024-01-10T08:32:10;15.68;;;9.18;;
21107;SDS011;10712;52.944;9.098;2024-01-10T08:34:36;15.02;;;9.07;;
21107;SDS011;10712;52.944;9.098;2024-01-10T08:37:02;12.70;;;9.05;;
21107;SDS011;10712;52.944;9.098;2024-01-10T08:39:28;15.63;;;9.60;;
21107;SDS011;10712;52.944;9.098;2024-01-10T08:41:56;14.68;;;8.90;;
21107;SDS011;10712;52.944;9.098;2024-01-10T08:44:22;14.65;;;9.95;;
21107;SDS011;10712;52.944;9.098;2024-01-10T08:46:48;16.55;;;11.27;;
21107;SDS011;10712;52.944;9.098;2024-01-10T08:49:16;14.77;;;10.00;;
21107;SDS011;10712;52.944;9.098;2024-01-10T08:51:42;14.63;;;9.27;;
21107;SDS011;10712;52.944;9.098;2024-01-10T08:54:09;13.70;;;9.10;;
21107;SDS011;10712;52.944;9.098;2024-01-10T08:56:37;12.32;;;9.05;;
21107;SDS011;10712;52.944;9.098;2024-01-10T08:59:03;13.43;;;8.93;;
21107;SDS011;10712;52.944;9.098;2024-01-10T09:01:29;12.48;;;8.90;;
21107;SDS011;10712;52.944;9.098;2024-01-10T09:03:55;11.77;;;8.57;;
21107;SDS011;10712;52.944;9.098;2024-01-10T09:06:21;12.20;;;8.40;;
21107;SDS011;10712;52.944;9.098;2024-01-10T09:08:47;14.98;;;9.50;;
21107;SDS011;10712;52.944;9.098;2024-01-10T09:11:13;14.27;;;9.10;;
21107;SDS011;10712;52.944;9.098;2024-01-10T09:13:39;14.27;;;8.73;;
21107;SDS011;10712;52.944;9.098;2024-01-10T09:16:05;16.40;;;9.95;;
21107;SDS011;10712;52.944;9.098;2024-01-10T09:18:31;15.13;;;9.25;;
21107;SDS011;10712;52.944;9.098;2024-01-10T09:20:57;13.38;;;9.18;;
21107;SDS011;10712;52.944;9.098;2024-01-10T09:23:23;14.32;;;9.57;;
21107;SDS011;10712;52.944;9.098;2024-01-10T09:25:49;16.25;;;9.95;;
21107;SDS011;10712;52.944;9.098;2024-01-10T09:28:14;15.05;;;9.88;;
21107;SDS011;10712;52.944;9.098;2024-01-10T09:30:40;16.13;;;9.18;;
21107;SDS011;10712;52.944;9.098;2024-01-10T09:33:06;13.50;;;9.15;;
21107;SDS011;10712;52.944;9.098;2024-01-10T09:35:32;14.27;;;8.60;;
21107;SDS011;10712;52.944;9.098;2024-01-10T09:37:58;17.42;;;9.85;;
21107;SDS011;10712;52.944;9.098;2024-01-10T09:40:25;13.50;;;9.18;;
21107;SDS011;10712;52.944;9.098;2024-01-10T09:42:53;12.75;;;8.13;;
21107;SDS011;10712;52.944;9.098;2024-01-10T09:45:20;13.68;;;8.90;;
21107;SDS011;10712;52.944;9.098;2024-01-10T09:47:49;13.48;;;9.15;;
21107;SDS011;10712;52.944;9.098;2024-01-10T09:50:20;14.52;;;8.93;;
21107;SDS011;10712;52.944;9.098;2024-01-10T09:52:50;14.50;;;8.90;;
21107;SDS011;10712;52.944;9.098;2024-01-10T09:55:20;17.33;;;9.27;;
21107;SDS011;10712;52.944;9.098;2024-01-10T09:57:48;16.08;;;8.85;;
21107;SDS011;10712;52.944;9.098;2024-01-10T10:00:15;16.88;;;9.23;;
21107;SDS011;10712;52.944;9.098;2024-01-10T10:02:42;15.77;;;9.45;;
21107;SDS011;10712;52.944;9.098;2024-01-10T10:05:13;14.88;;;8.93;;
21107;SDS011;10712;52.944;9.098;2024-01-10T10:10:16;16.40;;;9.15;;
21107;SDS011;10712;52.944;9.098;2024-01-10T10:12:51;14.90;;;9.45;;
21107;SDS011;10712;52.944;9.098;2024-01-10T10:15:18;16.23;;;9.27;;
21107;SDS011;10712;52.944;9.098;2024-01-10T10:17:49;16.25;;;9.73;;
21107;SDS011;10712;52.944;9.098;2024-01-10T10:20:25;16.30;;;9.27;;
21107;SDS011;10712;52.944;9.098;2024-01-10T10:28:03;16.10;;;9.00;;
21107;SDS011;10712;52.944;9.098;2024-01-10T10:30:33;14.65;;;9.68;;
21107;SDS011;10712;52.944;9.098;2024-01-10T10:32:59;15.10;;;10.40;;
21107;SDS011;10712;52.944;9.098;2024-01-10T10:35:26;16.92;;;9.75;;
21107;SDS011;10712;52.944;9.098;2024-01-10T10:37:52;18.58;;;9.23;;
21107;SDS011;10712;52.944;9.098;2024-01-10T10:40:19;14.45;;;9.23;;
21107;SDS011;10712;52.944;9.098;2024-01-10T10:42:53;15.93;;;9.90;;
21107;SDS011;10712;52.944;9.098;2024-01-10T10:45:24;15.40;;;9.77;;
21107;SDS011;10712;52.944;9.098;2024-01-10T10:48:01;15.55;;;9.10;;
21107;SDS011;10712;52.944;9.098;2024-01-10T10:50:28;16.33;;;9.77;;
21107;SDS011;10712;52.944;9.098;2024-01-10T10:53:00;17.35;;;9.30;;
21107;SDS011;10712;52.944;9.098;2024-01-10T10:55:28;14.00;;;9.00;;
21107;SDS011;10712;52.944;9.098;2024-01-10T10:57:56;15.07;;;9.63;;
21107;SDS011;10712;52.944;9.098;2024-01-10T11:00:24;16.05;;;9.77;;
21107;SDS011;10712;52.944;9.098;2024-01-10T11:02:55;14.88;;;9.70;;
21107;SDS011;10712;52.944;9.098;2024-01-10T11:05:24;15.27;;;9.32;;
21107;SDS011;10712;52.944;9.098;2024-01-10T11:07:51;21.35;;;11.43;;
21107;SDS011;10712;52.944;9.098;2024-01-10T11:10:18;17.85;;;11.57;;
21107;SDS011;10712;52.944;9.098;2024-01-10T11:15:44;16.42;;;10.77;;
21107;SDS011;10712;52.944;9.098;2024-01-10T11:24:17;12.57;;;8.98;;
21107;SDS011;10712;52.944;9.098;2024-01-10T11:26:45;11.57;;;7.85;;
21107;SDS011;10712;52.944;9.098;2024-01-10T11:29:11;13.43;;;8.52;;
21107;SDS011;10712;52.944;9.098;2024-01-10T11:31:38;14.40;;;9.32;;
21107;SDS011;10712;52.944;9.098;2024-01-10T11:34:04;13.55;;;9.07;;
21107;SDS011;10712;52.944;9.098;2024-01-10T11:36:30;13.68;;;8.90;;
21107;SDS011;10712;52.944;9.098;2024-01-10T11:41:28;23.98;;;12.88;;
21107;SDS011;10712;52.944;9.098;2024-01-10T11:46:55;17.10;;;9.77;;
21107;SDS011;10712;52.944;9.098;2024-01-10T11:49:24;14.90;;;8.93;;
21107;SDS011;10712;52.944;9.098;2024-01-10T11:51:59;13.73;;;8.55;;
21107;SDS011;10712;52.944;9.098;2024-01-10T11:57:02;15.02;;;8.55;;
21107;SDS011;10712;52.944;9.098;2024-01-10T11:59:28;13.95;;;8.98;;
21107;SDS011;10712;52.944;9.098;2024-01-10T12:01:55;14.20;;;8.48;;
21107;SDS011;10712;52.944;9.098;2024-01-10T12:04:22;13.07;;;8.88;;
21107;SDS011;10712;52.944;9.098;2024-01-10T12:06:48;17.35;;;9.70;;
21107;SDS011;10712;52.944;9.098;2024-01-10T12:09:14;20.05;;;9.48;;
21107;SDS011;10712;52.944;9.098;2024-01-10T12:11:41;13.00;;;9.02;;
21107;SDS011;10712;52.944;9.098;2024-01-10T12:14:10;15.25;;;8.57;;
21107;SDS011;10712;52.944;9.098;2024-01-10T12:16:36;16.17;;;9.15;;
21107;SDS011;10712;52.944;9.098;2024-01-10T12:19:02;15.05;;;8.77;;
21107;SDS011;10712;52.944;9.098;2024-01-10T12:21:28;14.45;;;8.82;;
21107;SDS011;10712;52.944;9.098;2024-01-10T12:23:55;16.63;;;9.25;;
21107;SDS011;10712;52.944;9.098;2024-01-10T12:26:21;22.20;;;9.05;;
21107;SDS011;10712;52.944;9.098;2024-01-10T12:28:56;18.08;;;9.02;;
21107;SDS011;10712;52.944;9.098;2024-01-10T12:31:24;10.20;;;7.60;;
21107;SDS011;10712;52.944;9.098;2024-01-10T12:33:56;14.13;;;8.55;;
21107;SDS011;10712;52.944;9.098;2024-01-10T12:36:24;12.93;;;7.13;;
21107;SDS011;10712;52.944;9.098;2024-01-10T12:38:50;12.70;;;8.40;;
21107;SDS011;10712;52.944;9.098;2024-01-10T12:41:17;12.68;;;8.18;;
21107;SDS011;10712;52.944;9.098;2024-01-10T12:43:53;16.27;;;8.63;;
21107;SDS011;10712;52.944;9.098;2024-01-10T12:46:22;14.45;;;9.05;;
21107;SDS011;10712;52.944;9.098;2024-01-10T12:49:04;14.07;;;9.43;;
21107;SDS011;10712;52.944;9.098;2024-01-10T12:51:32;15.30;;;8.90;;
21107;SDS011;10712;52.944;9.098;2024-01-10T12:54:01;13.95;;;8.57;;
21107;SDS011;10712;52.944;9.098;2024-01-10T12:56:29;15.32;;;8.77;;
21107;SDS011;10712;52.944;9.098;2024-01-10T12:58:56;15.20;;;8.63;;
21107;SDS011;10712;52.944;9.098;2024-01-10T13:01:23;15.13;;;8.45;;
21107;SDS011;10712;52.944;9.098;2024-01-10T13:03:50;14.80;;;9.45;;
21107;SDS011;10712;52.944;9.098;2024-01-10T13:06:16;15.65;;;8.73;;
21107;SDS011;10712;52.944;9.098;2024-01-10T13:08:44;13.07;;;7.95;;
21107;SDS011;10712;52.944;9.098;2024-01-10T13:11:13;12.48;;;8.02;;
21107;SDS011;10712;52.944;9.098;2024-01-10T13:13:40;13.32;;;8.45;;
21107;SDS011;10712;52.944;9.098;2024-01-10T13:16:08;13.02;;;7.93;;
21107;SDS011;10712;52.944;9.098;2024-01-10T13:18:38;14.25;;;8.80;;
21107;SDS011;10712;52.944;9.098;2024-01-10T13:21:04;13.93;;;8.15;;
21107;SDS011;10712;52.944;9.098;2024-01-10T13:23:31;15.60;;;9.10;;
21107;SDS011;10712;52.944;9.098;2024-01-10T13:25:57;13.98;;;8.10;;
21107;SDS011;10712;52.944;9.098;2024-01-10T13:28:24;14.15;;;8.82;;
21107;SDS011;10712;52.944;9.098;2024-01-10T13:30:49;13.32;;;7.80;;
21107;SDS011;10712;52.944;9.098;2024-01-10T13:33:16;12.75;;;7.82;;
21107;SDS011;10712;52.944;9.098;2024-01-10T13:35:42;11.85;;;8.05;;
21107;SDS011;10712;52.944;9.098;2024-01-10T13:38:08;12.55;;;8.13;;
21107;SDS011;10712;52.944;9.098;2024-01-10T13:40:35;15.27;;;8.75;;
21107;SDS011;10712;52.944;9.098;2024-01-10T13:43:00;15.57;;;8.23;;
21107;SDS011;10712;52.944;9.098;2024-01-10T13:45:28;13.73;;;8.68;;
21107;SDS011;10712;52.944;9.098;2024-01-10T13:47:54;14.23;;;8.38;;
21107;SDS011;10712;52.944;9.098;2024-01-10T13:50:20;14.75;;;9.20;;
21107;SDS011;10712;52.944;9.098;2024-01-10T13:52:47;11.55;;;7.93;;
21107;SDS011;10712;52.944;9.098;2024-01-10T13:55:12;14.65;;;9.05;;
21107;SDS011;10712;52.944;9.098;2024-01-10T13:57:38;11.00;;;7.25;;
21107;SDS011;10712;52.944;9.098;2024-01-10T14:00:07;13.75;;;7.70;;
21107;SDS011;10712;52.944;9.098;2024-01-10T14:02:40;17.42;;;8.30;;
21107;SDS011;10712;52.944;9.098;2024-01-10T14:05:07;12.90;;;8.27;;
21107;SDS011;10712;52.944;9.098;2024-01-10T14:07:35;11.35;;;7.43;;
21107;SDS011;10712;52.944;9.098;2024-01-10T14:10:00;20.55;;;11.50;;
21107;SDS011;10712;52.944;9.098;2024-01-10T14:12:27;24.17;;;13.05;;
21107;SDS011;10712;52.944;9.098;2024-01-10T14:14:56;13.95;;;8.40;;
21107;SDS011;10712;52.944;9.098;2024-01-10T14:17:23;15.38;;;7.97;;
21107;SDS011;10712;52.944;9.098;2024-01-10T14:19:50;10.68;;;7.30;;
21107;SDS011;10712;52.944;9.098;2024-01-10T14:22:17;12.27;;;7.45;;
21107;SDS011;10712;52.944;9.098;2024-01-10T14:24:43;11.07;;;6.78;;
21107;SDS011;10712;52.944;9.098;2024-01-10T14:27:09;12.88;;;7.88;;
21107;SDS011;10712;52.944;9.098;2024-01-10T14:29:35;11.38;;;7.03;;
21107;SDS011;10712;52.944;9.098;2024-01-10T14:32:01;11.32;;;7.50;;
21107;SDS011;10712;52.944;9.098;2024-01-10T14:34:28;11.27;;;6.85;;
21107;SDS011;10712;52.944;9.098;2024-01-10T14:36:54;13.63;;;7.53;;
21107;SDS011;10712;52.944;9.098;2024-01-10T14:39:20;12.75;;;7.78;;
21107;SDS011;10712;52.944;9.098;2024-01-10T14:41:46;12.77;;;7.55;;
21107;SDS011;10712;52.944;9.098;2024-01-10T14:44:12;11.57;;;7.47;;
21107;SDS011;10712;52.944;9.098;2024-01-10T14:46:38;10.98;;;7.18;;
21107;SDS011;10712;52.944;9.098;2024-01-10T14:49:04;14.07;;;7.45;;
21107;SDS011;10712;52.944;9.098;2024-01-10T14:51:30;11.68;;;6.93;;
21107;SDS011;10712;52.944;9.098;2024-01-10T14:53:55;12.00;;;7.45;;
21107;SDS011;10712;52.944;9.098;2024-01-10T14:56:21;12.57;;;7.65;;